Time;durP1;ratioP1;P1;durP2;ratioP2;P2;SDS_P1;SDS_P2;PMS_P1;PMS_P2;Temp;Humidity;BMP_temperature;BMP_pressure;BME280_temperature;BME280_humidity;BME280_pressure;Samples;Min_cycle;Max_cycle;Signal;HPM_P1;HPM_P2
2023/06/28 00:00:14;;;;;;;0.20;0.20;;;17.20;99.90;;;;;;5144004;27;20043;-68
2023/06/28 00:02:40;;;;;;;0.00;0.00;;;17.20;99.90;;;;;;5137301;27;20047;-67
2023/06/28 00:05:07;;;;;;;0.00;0.00;;;17.10;99.90;;;;;;5148739;27;20367;-67
2023/06/28 00:07:33;;;;;;;0.10;0.10;;;17.10;99.90;;;;;;5146478;27;20424;-68
2023/06/28 00:09:59;;;;;;;0.00;0.00;;;17.10;99.90;;;;;;5139611;27;20042;-67
2023/06/28 00:12:26;;;;;;;0.65;0.65;;;17.10;99.90;;;;;;5144577;27;20058;-67
2023/06/28 00:14:53;;;;;;;0.00;0.00;;;17.10;99.90;;;;;;5149112;27;20057;-67
2023/06/28 00:17:19;;;;;;;0.35;0.35;;;17.10;99.90;;;;;;5145389;27;20066;-67
2023/06/28 00:19:47;;;;;;;0.00;0.00;;;17.00;99.90;;;;;;5144997;27;20483;-67
2023/06/28 00:22:17;;;;;;;0.00;0.00;;;17.00;99.90;;;;;;5147860;27;20107;-67
2023/06/28 00:24:42;;;;;;;0.00;0.00;;;17.10;99.90;;;;;;5145553;27;20043;-67
2023/06/28 00:27:11;;;;;;;0.00;0.00;;;17.10;99.90;;;;;;5147677;27;20371;-67
2023/06/28 00:29:37;;;;;;;0.38;0.32;;;17.10;99.90;;;;;;5147246;27;20121;-67
2023/06/28 00:32:03;;;;;;;0.82;0.30;;;17.30;99.90;;;;;;5145456;27;20159;-67
2023/06/28 00:34:28;;;;;;;0.00;0.00;;;17.20;99.90;;;;;;5144477;27;20038;-68
2023/06/28 00:36:54;;;;;;;0.00;0.00;;;17.30;99.90;;;;;;5145579;27;20043;-67
2023/06/28 00:39:20;;;;;;;2.72;0.95;;;17.20;99.90;;;;;;5144910;27;20039;-67
2023/06/28 00:41:45;;;;;;;0.47;0.47;;;17.20;99.90;;;;;;5148086;27;20121;-67
2023/06/28 00:44:11;;;;;;;1.48;0.85;;;17.30;99.90;;;;;;5144511;27;20496;-67
2023/06/28 00:46:36;;;;;;;0.00;0.00;;;17.20;99.90;;;;;;5127535;27;20042;-67
2023/06/28 00:49:02;;;;;;;0.00;0.00;;;17.30;99.90;;;;;;5147877;27;20390;-67
2023/06/28 00:51:30;;;;;;;0.00;0.00;;;17.30;99.90;;;;;;5144453;27;20129;-67
2023/06/28 00:53:57;;;;;;;0.00;0.00;;;17.30;99.90;;;;;;5142693;27;20050;-67
2023/06/28 00:56:24;;;;;;;0.00;0.00;;;17.40;99.90;;;;;;5147208;27;20130;-67
2023/06/28 00:58:50;;;;;;;0.00;0.00;;;17.40;99.90;;;;;;5152056;27;20088;-68
2023/06/28 01:01:17;;;;;;;0.60;0.60;;;17.40;99.90;;;;;;5143483;27;20521;-67
2023/06/28 01:03:42;;;;;;;0.00;0.00;;;17.40;99.90;;;;;;5145658;27;20035;-67
2023/06/28 01:06:12;;;;;;;0.00;0.00;;;17.40;99.90;;;;;;5146783;27;20401;-67
2023/06/28 01:08:39;;;;;;;0.10;0.10;;;17.40;99.90;;;;;;5125555;27;20470;-67
2023/06/28 01:11:06;;;;;;;0.52;0.52;;;17.40;99.90;;;;;;5144234;27;20035;-67
2023/06/28 01:13:34;;;;;;;0.20;0.20;;;17.40;99.90;;;;;;5146267;27;20516;-67
2023/06/28 01:16:00;;;;;;;0.00;0.00;;;17.40;99.90;;;;;;5146246;27;20047;-68
2023/06/28 01:18:26;;;;;;;0.17;0.17;;;17.40;99.90;;;;;;5148037;27;20046;-67
2023/06/28 01:20:55;;;;;;;0.00;0.00;;;17.40;99.90;;;;;;5143061;27;20039;-67
2023/06/28 01:23:25;;;;;;;0.00;0.00;;;17.30;99.90;;;;;;5144493;27;20513;-68
2023/06/28 01:25:51;;;;;;;0.00;0.00;;;17.30;99.90;;;;;;5146839;27;20078;-67
2023/06/28 01:28:19;;;;;;;0.00;0.00;;;17.20;99.90;;;;;;5144305;27;20051;-68
2023/06/28 01:30:48;;;;;;;0.43;0.43;;;17.20;99.90;;;;;;5141587;27;20070;-67
2023/06/28 01:33:15;;;;;;;0.00;0.00;;;17.20;99.90;;;;;;5145453;27;20096;-67
2023/06/28 01:35:41;;;;;;;0.35;0.35;;;17.20;99.90;;;;;;5126232;27;20053;-67
2023/06/28 01:38:07;;;;;;;0.03;0.03;;;17.20;99.90;;;;;;5145267;27;20039;-67
2023/06/28 01:40:35;;;;;;;0.00;0.00;;;17.20;99.90;;;;;;5144296;27;20066;-68
2023/06/28 01:43:05;;;;;;;0.00;0.00;;;17.10;99.90;;;;;;5145520;27;20043;-67
2023/06/28 01:45:34;;;;;;;0.20;0.20;;;17.20;99.90;;;;;;5146359;27;20079;-67
2023/06/28 01:48:00;;;;;;;0.00;0.00;;;17.10;99.90;;;;;;5146719;27;20053;-67
2023/06/28 01:50:29;;;;;;;0.00;0.00;;;17.10;99.90;;;;;;5146817;27;20106;-67
2023/06/28 01:53:01;;;;;;;0.00;0.00;;;17.10;99.90;;;;;;5143330;27;20035;-67
2023/06/28 01:55:28;;;;;;;0.10;0.10;;;17.00;99.90;;;;;;5140717;27;20542;-67
2023/06/28 01:57:53;;;;;;;0.03;0.03;;;17.00;99.90;;;;;;5124986;27;20039;-68
2023/06/28 02:00:19;;;;;;;0.00;0.00;;;16.90;99.90;;;;;;5125143;27;20104;-67
2023/06/28 02:02:45;;;;;;;2.13;0.57;;;16.90;99.90;;;;;;5143623;27;20088;-67
2023/06/28 02:05:11;;;;;;;0.00;0.00;;;16.90;99.90;;;;;;5147503;27;20453;-67
2023/06/28 02:07:37;;;;;;;0.00;0.00;;;16.80;99.90;;;;;;5143534;27;20050;-67
2023/06/28 02:10:04;;;;;;;0.00;0.00;;;16.80;99.90;;;;;;5145910;27;20030;-67
2023/06/28 02:12:29;;;;;;;0.20;0.10;;;16.80;99.90;;;;;;5138246;27;20035;-67
2023/06/28 02:14:55;;;;;;;0.00;0.00;;;16.70;99.90;;;;;;5144328;27;20367;-68
2023/06/28 02:17:21;;;;;;;0.00;0.00;;;16.60;99.90;;;;;;5141401;27;20034;-67
2023/06/28 02:19:49;;;;;;;0.00;0.00;;;16.70;99.90;;;;;;5142965;27;20043;-67
2023/06/28 02:22:16;;;;;;;0.00;0.00;;;16.80;99.90;;;;;;5137271;27;20103;-67
2023/06/28 02:24:42;;;;;;;0.00;0.00;;;16.70;99.90;;;;;;5144190;27;20039;-67
2023/06/28 02:27:10;;;;;;;1.10;0.38;;;16.70;99.90;;;;;;5144340;27;20042;-67
2023/06/28 02:29:37;;;;;;;0.00;0.00;;;16.70;99.90;;;;;;5137491;27;20085;-67
2023/06/28 02:32:03;;;;;;;0.90;0.52;;;16.60;99.90;;;;;;5145690;27;20039;-67
2023/06/28 02:34:29;;;;;;;0.20;0.20;;;16.60;99.90;;;;;;5142359;27;20074;-67
2023/06/28 02:36:55;;;;;;;0.00;0.00;;;16.60;99.90;;;;;;5141758;27;20068;-67
2023/06/28 02:39:21;;;;;;;0.00;0.00;;;16.60;99.90;;;;;;5142087;27;20074;-67
2023/06/28 02:41:47;;;;;;;0.00;0.00;;;16.60;99.90;;;;;;5147098;27;20061;-67
2023/06/28 02:44:14;;;;;;;0.00;0.00;;;16.50;99.90;;;;;;5141786;27;20039;-68
2023/06/28 02:46:39;;;;;;;0.10;0.10;;;16.50;99.90;;;;;;5141667;27;20094;-68
2023/06/28 02:49:06;;;;;;;0.00;0.00;;;16.50;99.90;;;;;;5142160;27;20110;-67
2023/06/28 02:51:31;;;;;;;0.00;0.00;;;16.60;99.90;;;;;;5141496;27;20042;-67
2023/06/28 02:53:57;;;;;;;0.00;0.00;;;16.50;99.90;;;;;;5126910;27;20042;-67
2023/06/28 02:56:23;;;;;;;0.00;0.00;;;16.60;99.90;;;;;;5144967;27;20494;-67
2023/06/28 02:58:49;;;;;;;0.08;0.08;;;16.60;99.90;;;;;;5129209;27;20047;-67
2023/06/28 03:01:15;;;;;;;3.42;1.15;;;16.60;99.90;;;;;;5142866;27;20042;-67
2023/06/28 03:03:41;;;;;;;0.52;0.52;;;16.60;99.90;;;;;;5125588;27;20046;-67
2023/06/28 03:06:06;;;;;;;0.10;0.10;;;16.60;99.90;;;;;;5139194;27;20120;-67
2023/06/28 03:08:33;;;;;;;0.00;0.00;;;16.60;99.90;;;;;;5149448;27;20428;-67
2023/06/28 03:10:59;;;;;;;0.00;0.00;;;16.50;99.90;;;;;;5123436;27;20051;-67
2023/06/28 03:13:24;;;;;;;0.10;0.10;;;16.50;99.90;;;;;;5139981;27;20027;-67
2023/06/28 03:15:50;;;;;;;0.00;0.00;;;16.60;99.90;;;;;;5150273;27;20137;-67
2023/06/28 03:18:16;;;;;;;0.00;0.00;;;16.60;99.90;;;;;;5140958;27;20042;-67
2023/06/28 03:20:41;;;;;;;0.00;0.00;;;16.50;99.90;;;;;;5141222;27;20530;-67
2023/06/28 03:23:07;;;;;;;0.00;0.00;;;16.40;99.90;;;;;;5121938;27;20047;-67
2023/06/28 03:25:33;;;;;;;0.10;0.10;;;16.50;99.90;;;;;;5132701;27;20031;-67
2023/06/28 03:27:58;;;;;;;0.00;0.00;;;16.50;99.90;;;;;;5150417;27;20043;-67
2023/06/28 03:30:24;;;;;;;0.10;0.10;;;16.50;99.90;;;;;;5135321;27;20042;-67
2023/06/28 03:32:49;;;;;;;0.05;0.05;;;16.50;99.90;;;;;;5143814;27;20078;-67
2023/06/28 03:35:15;;;;;;;0.00;0.00;;;16.50;99.90;;;;;;5142828;27;20383;-67
2023/06/28 03:37:52;;;;;;;0.25;0.25;;;16.50;99.90;;;;;;5141494;27;20039;-67
2023/06/28 03:40:18;;;;;;;0.00;0.00;;;16.50;99.90;;;;;;5140876;27;20113;-67
2023/06/28 03:42:44;;;;;;;0.00;0.00;;;16.50;99.90;;;;;;5147962;27;20126;-67
2023/06/28 03:45:09;;;;;;;0.00;0.00;;;16.60;99.90;;;;;;5141668;27;20043;-67
2023/06/28 03:47:35;;;;;;;0.47;0.20;;;16.50;99.90;;;;;;5143870;27;20039;-67
2023/06/28 03:50:01;;;;;;;0.40;0.40;;;16.50;99.90;;;;;;5145403;27;20795;-67
2023/06/28 03:52:27;;;;;;;0.10;0.10;;;16.50;99.90;;;;;;5144547;27;20065;-67
2023/06/28 03:54:53;;;;;;;0.05;0.05;;;16.50;99.90;;;;;;5144448;27;20528;-67
2023/06/28 03:57:21;;;;;;;0.00;0.00;;;16.50;99.90;;;;;;5143558;27;20427;-67
2023/06/28 03:59:47;;;;;;;0.00;0.00;;;16.50;99.90;;;;;;5144194;27;20082;-67
2023/06/28 04:02:13;;;;;;;0.00;0.00;;;16.60;99.90;;;;;;5125345;27;20102;-67
2023/06/28 04:04:39;;;;;;;0.03;0.03;;;16.50;99.90;;;;;;5142324;27;20046;-67
2023/06/28 04:07:05;;;;;;;8.52;1.25;;;16.50;99.90;;;;;;5133042;27;20039;-67
2023/06/28 04:09:31;;;;;;;0.10;0.10;;;16.60;99.90;;;;;;5139992;27;20047;-67
2023/06/28 04:11:56;;;;;;;0.00;0.00;;;16.50;99.90;;;;;;5149209;27;20387;-67
2023/06/28 04:14:24;;;;;;;0.00;0.00;;;16.50;99.90;;;;;;5144941;27;20423;-67
2023/06/28 04:16:52;;;;;;;0.10;0.10;;;16.50;99.90;;;;;;5141567;27;20042;-67
2023/06/28 04:19:18;;;;;;;0.05;0.05;;;16.60;99.90;;;;;;5143511;27;20042;-68
2023/06/28 04:21:44;;;;;;;0.00;0.00;;;16.60;99.90;;;;;;5141886;27;20091;-68
2023/06/28 04:24:10;;;;;;;0.00;0.00;;;16.60;99.90;;;;;;5125156;27;20039;-68
2023/06/28 04:26:35;;;;;;;0.00;0.00;;;16.60;99.90;;;;;;5137704;27;20047;-68
2023/06/28 04:29:01;;;;;;;0.13;0.13;;;16.60;99.90;;;;;;5145973;27;20027;-68
2023/06/28 04:31:27;;;;;;;0.03;0.03;;;16.60;99.90;;;;;;5138714;27;20043;-68
2023/06/28 04:33:55;;;;;;;0.10;0.10;;;16.60;99.90;;;;;;5147226;27;20117;-68
2023/06/28 04:36:21;;;;;;;0.00;0.00;;;16.60;99.90;;;;;;5141497;27;20061;-68
2023/06/28 04:38:52;;;;;;;0.10;0.10;;;16.50;99.90;;;;;;5144754;27;20043;-68
2023/06/28 04:41:27;;;;;;;0.00;0.00;;;16.50;99.90;;;;;;5139962;27;20390;-69
2023/06/28 04:43:57;;;;;;;0.00;0.00;;;16.40;99.90;;;;;;5145901;27;20058;-68
2023/06/28 04:46:26;;;;;;;0.00;0.00;;;16.50;99.90;;;;;;5143900;27;20039;-68
2023/06/28 04:48:53;;;;;;;0.90;0.65;;;16.40;99.90;;;;;;5145135;27;20039;-68
2023/06/28 04:51:19;;;;;;;0.00;0.00;;;16.50;99.90;;;;;;5131416;27;20066;-69
2023/06/28 04:53:46;;;;;;;0.82;0.40;;;16.50;99.90;;;;;;5144580;27;20035;-68
2023/06/28 04:56:12;;;;;;;0.20;0.20;;;16.40;99.90;;;;;;5135697;27;20574;-68
2023/06/28 04:58:38;;;;;;;0.05;0.05;;;16.50;99.90;;;;;;5140191;27;20047;-68
2023/06/28 05:01:10;;;;;;;0.00;0.00;;;16.40;99.90;;;;;;5144056;27;20046;-69
2023/06/28 05:03:38;;;;;;;3.90;0.57;;;16.50;99.90;;;;;;5147522;27;20053;-68
2023/06/28 05:06:08;;;;;;;0.00;0.00;;;16.50;99.90;;;;;;5143322;27;20067;-69
2023/06/28 05:08:34;;;;;;;0.00;0.00;;;16.50;99.90;;;;;;5144242;27;20047;-69
2023/06/28 05:11:03;;;;;;;0.50;0.28;;;16.50;99.90;;;;;;5142130;27;20040;-69
2023/06/28 05:13:29;;;;;;;0.00;0.00;;;16.50;99.90;;;;;;5143491;27;20143;-69
2023/06/28 05:15:54;;;;;;;0.15;0.15;;;16.60;99.90;;;;;;5145397;27;20471;-69
2023/06/28 05:18:20;;;;;;;0.30;0.30;;;16.60;99.90;;;;;;5123553;27;20035;-69
2023/06/28 05:20:46;;;;;;;0.00;0.00;;;16.60;99.90;;;;;;5140664;27;20188;-69
2023/06/28 05:23:14;;;;;;;0.00;0.00;;;16.60;99.90;;;;;;5147239;27;20084;-69
2023/06/28 05:25:41;;;;;;;0.28;0.22;;;16.60;99.90;;;;;;5145229;27;20043;-68
2023/06/28 05:28:08;;;;;;;1.75;1.33;;;16.70;99.90;;;;;;5143692;27;20477;-69
2023/06/28 05:30:34;;;;;;;0.00;0.00;;;16.60;99.90;;;;;;5147033;27;20780;-69
2023/06/28 05:33:02;;;;;;;0.00;0.00;;;16.60;99.90;;;;;;5139822;27;20067;-69
2023/06/28 05:35:32;;;;;;;0.00;0.00;;;16.70;99.90;;;;;;5142876;27;20516;-69
2023/06/28 05:38:03;;;;;;;0.25;0.25;;;16.70;99.90;;;;;;5146884;27;20140;-69
2023/06/28 05:40:29;;;;;;;0.00;0.00;;;16.60;99.90;;;;;;5135927;27;20058;-69
2023/06/28 05:42:57;;;;;;;0.10;0.10;;;16.70;99.90;;;;;;5145069;27;20043;-69
2023/06/28 05:45:24;;;;;;;0.00;0.00;;;16.70;99.90;;;;;;5141013;27;20430;-69
2023/06/28 05:47:52;;;;;;;0.00;0.00;;;16.80;99.90;;;;;;5145821;27;20035;-69
2023/06/28 05:50:20;;;;;;;0.13;0.13;;;16.80;99.90;;;;;;5140694;27;20058;-69
2023/06/28 05:52:47;;;;;;;0.20;0.20;;;16.80;99.90;;;;;;5144638;27;20050;-68
2023/06/28 05:55:13;;;;;;;0.00;0.00;;;16.80;99.90;;;;;;5139794;27;20075;-69
2023/06/28 05:57:39;;;;;;;0.10;0.10;;;16.80;99.90;;;;;;5141547;27;20074;-69
2023/06/28 06:00:06;;;;;;;0.38;0.38;;;16.80;99.90;;;;;;5143876;27;20394;-69
2023/06/28 06:02:32;;;;;;;0.00;0.00;;;16.80;99.90;;;;;;5144028;27;20042;-69
2023/06/28 06:04:58;;;;;;;0.10;0.10;;;16.80;99.90;;;;;;5142759;27;20039;-69
2023/06/28 06:07:24;;;;;;;0.22;0.22;;;16.90;99.90;;;;;;5140387;27;20058;-69
2023/06/28 06:09:49;;;;;;;0.43;0.43;;;16.90;99.90;;;;;;5145162;27;20043;-69
2023/06/28 06:12:15;;;;;;;0.08;0.08;;;16.90;99.90;;;;;;5140808;27;20031;-69
2023/06/28 06:14:41;;;;;;;0.00;0.00;;;16.90;99.90;;;;;;5141930;27;20059;-69
2023/06/28 06:17:06;;;;;;;0.00;0.00;;;17.00;99.90;;;;;;5142690;27;20039;-69
2023/06/28 06:19:32;;;;;;;0.20;0.20;;;16.90;99.90;;;;;;5142887;27;20047;-69
2023/06/28 06:21:57;;;;;;;0.10;0.10;;;16.90;99.90;;;;;;5136741;27;20138;-69
2023/06/28 06:24:23;;;;;;;0.00;0.00;;;16.90;99.90;;;;;;5141996;27;20474;-69
2023/06/28 06:26:49;;;;;;;0.47;0.38;;;16.90;99.90;;;;;;5145831;27;20034;-70
2023/06/28 06:29:14;;;;;;;0.80;0.80;;;16.80;99.90;;;;;;5140402;27;20434;-70
2023/06/28 06:31:40;;;;;;;0.00;0.00;;;16.80;99.90;;;;;;5141768;27;20051;-70
2023/06/28 06:34:05;;;;;;;0.00;0.00;;;16.80;99.90;;;;;;5142896;27;20078;-70
2023/06/28 06:36:31;;;;;;;2.17;1.02;;;16.80;99.90;;;;;;5144716;27;20031;-69
2023/06/28 06:38:57;;;;;;;0.00;0.00;;;16.80;99.90;;;;;;5143235;27;20045;-69
2023/06/28 06:41:23;;;;;;;0.00;0.00;;;16.80;99.90;;;;;;5138205;27;20108;-70
2023/06/28 06:43:49;;;;;;;1.17;0.88;;;16.80;99.90;;;;;;5144744;27;20039;-69
2023/06/28 06:46:16;;;;;;;0.00;0.00;;;16.80;99.90;;;;;;5143003;27;20482;-69
2023/06/28 06:48:41;;;;;;;0.10;0.10;;;16.80;99.90;;;;;;5140049;27;20058;-69
2023/06/28 06:51:07;;;;;;;0.00;0.00;;;16.90;99.90;;;;;;5144466;27;20038;-70
2023/06/28 06:53:33;;;;;;;0.10;0.10;;;16.90;99.90;;;;;;5136302;27;20053;-69
2023/06/28 06:55:59;;;;;;;0.10;0.10;;;16.90;99.90;;;;;;5149919;27;20035;-69
2023/06/28 06:58:25;;;;;;;2.17;0.47;;;16.80;99.90;;;;;;5145520;27;20489;-69
2023/06/28 07:00:52;;;;;;;0.32;0.32;;;16.80;99.90;;;;;;5141478;27;20066;-69
2023/06/28 07:03:18;;;;;;;0.00;0.00;;;16.80;99.90;;;;;;5139225;27;20075;-69
2023/06/28 07:05:43;;;;;;;0.03;0.03;;;16.80;99.90;;;;;;5150899;27;20041;-69
2023/06/28 07:08:09;;;;;;;0.05;0.03;;;16.80;99.90;;;;;;5140126;27;20035;-69
2023/06/28 07:10:35;;;;;;;0.00;0.00;;;16.80;99.90;;;;;;5127620;27;20043;-69
2023/06/28 07:13:01;;;;;;;0.00;0.00;;;16.70;99.90;;;;;;5118674;27;20042;-69
2023/06/28 07:15:27;;;;;;;0.00;0.00;;;16.80;99.90;;;;;;5126418;27;20039;-69
2023/06/28 07:17:53;;;;;;;0.00;0.00;;;16.80;99.90;;;;;;5140876;27;20049;-70
2023/06/28 07:20:19;;;;;;;0.32;0.32;;;16.70;99.90;;;;;;5145017;27;20047;-70
2023/06/28 07:22:45;;;;;;;0.20;0.20;;;16.80;99.90;;;;;;5144363;27;20118;-69
2023/06/28 07:25:11;;;;;;;0.17;0.17;;;16.80;99.90;;;;;;5131650;27;20118;-69
2023/06/28 07:27:37;;;;;;;0.00;0.00;;;16.80;99.90;;;;;;5139912;27;20067;-69
2023/06/28 07:30:03;;;;;;;0.00;0.00;;;16.80;99.90;;;;;;5143655;27;20042;-69
2023/06/28 07:32:29;;;;;;;0.98;0.52;;;16.80;99.90;;;;;;5140278;27;20051;-69
2023/06/28 07:34:54;;;;;;;2.55;1.48;;;16.80;99.90;;;;;;5142743;27;20422;-69
2023/06/28 07:37:21;;;;;;;0.08;0.08;;;16.80;99.90;;;;;;5148896;27;20093;-69
2023/06/28 07:39:47;;;;;;;0.00;0.00;;;16.80;99.90;;;;;;5138674;27;20175;-69
2023/06/28 07:42:13;;;;;;;0.20;0.20;;;16.70;99.90;;;;;;5142447;27;20129;-70
2023/06/28 07:44:38;;;;;;;0.22;0.22;;;16.80;99.90;;;;;;5144336;27;20038;-70
2023/06/28 07:47:04;;;;;;;2.08;0.45;;;16.80;99.90;;;;;;5140670;27;20174;-69
2023/06/28 07:49:30;;;;;;;0.10;0.10;;;16.80;99.90;;;;;;5143621;27;20042;-70
2023/06/28 07:51:55;;;;;;;0.05;0.05;;;16.90;99.90;;;;;;5138181;27;20039;-70
2023/06/28 07:54:23;;;;;;;0.30;0.30;;;16.90;99.90;;;;;;5141300;27;20432;-70
2023/06/28 07:56:49;;;;;;;0.10;0.10;;;16.90;99.90;;;;;;5144820;27;20039;-69
2023/06/28 07:59:15;;;;;;;0.00;0.00;;;17.00;99.90;;;;;;5138856;27;20046;-70
2023/06/28 08:01:40;;;;;;;0.20;0.20;;;16.90;99.90;;;;;;5146487;27;20057;-69
2023/06/28 08:04:06;;;;;;;0.00;0.00;;;16.90;99.90;;;;;;5140894;27;20062;-70
2023/06/28 08:06:31;;;;;;;0.65;0.65;;;17.00;99.90;;;;;;5138513;27;20046;-70
2023/06/28 08:08:57;;;;;;;0.00;0.00;;;17.00;99.90;;;;;;5140221;27;20119;-70
2023/06/28 08:11:23;;;;;;;0.00;0.00;;;17.00;99.90;;;;;;5143424;27;20043;-70
2023/06/28 08:13:50;;;;;;;0.10;0.10;;;16.90;99.90;;;;;;5144948;27;20046;-70
2023/06/28 08:16:16;;;;;;;0.00;0.00;;;16.90;99.90;;;;;;5145248;27;20035;-70
2023/06/28 08:18:42;;;;;;;0.20;0.20;;;16.90;99.90;;;;;;5125006;27;20047;-70
2023/06/28 08:21:07;;;;;;;0.25;0.25;;;16.90;99.90;;;;;;5146971;27;20490;-70
2023/06/28 08:23:33;;;;;;;0.28;0.28;;;16.90;99.90;;;;;;5148454;27;20133;-70
2023/06/28 08:25:58;;;;;;;0.03;0.03;;;16.90;99.90;;;;;;5146178;27;20400;-70
2023/06/28 08:28:24;;;;;;;0.00;0.00;;;16.90;99.90;;;;;;5142890;27;20035;-70
2023/06/28 08:30:50;;;;;;;0.10;0.10;;;16.90;99.90;;;;;;5147694;27;20050;-70
2023/06/28 08:33:15;;;;;;;5.38;0.35;;;16.90;99.90;;;;;;5147095;27;20061;-70
2023/06/28 08:35:41;;;;;;;0.47;0.43;;;16.90;99.90;;;;;;5147424;27;20398;-70
2023/06/28 08:38:06;;;;;;;0.80;0.73;;;16.90;99.90;;;;;;5145630;27;20041;-70
2023/06/28 08:40:32;;;;;;;0.00;0.00;;;16.90;99.90;;;;;;5127576;27;20051;-70
2023/06/28 08:43:03;;;;;;;0.00;0.00;;;17.00;99.90;;;;;;5147117;27;20434;-70
2023/06/28 08:45:33;;;;;;;0.00;0.00;;;17.00;99.90;;;;;;5144969;27;20147;-70
2023/06/28 08:47:59;;;;;;;0.00;0.00;;;17.00;99.90;;;;;;5142474;27;20101;-71
2023/06/28 08:50:25;;;;;;;0.45;0.45;;;17.00;99.90;;;;;;5151365;27;20039;-70
2023/06/28 08:52:51;;;;;;;0.00;0.00;;;17.10;99.90;;;;;;5145608;27;20034;-70
2023/06/28 08:55:20;;;;;;;0.00;0.00;;;17.10;99.90;;;;;;5140891;27;20122;-70
2023/06/28 08:57:47;;;;;;;0.20;0.20;;;17.20;99.90;;;;;;5140367;27;20042;-71
2023/06/28 09:00:13;;;;;;;0.00;0.00;;;17.10;99.90;;;;;;5149729;27;20489;-70
2023/06/28 09:02:43;;;;;;;1.25;0.85;;;17.10;99.90;;;;;;5121535;27;20043;-70
2023/06/28 09:05:10;;;;;;;0.52;0.50;;;17.20;99.90;;;;;;5145672;27;20030;-70
2023/06/28 09:07:41;;;;;;;0.00;0.00;;;17.20;99.90;;;;;;5118985;27;20100;-70
2023/06/28 09:10:08;;;;;;;0.10;0.10;;;17.20;99.90;;;;;;5140884;27;20043;-70
2023/06/28 09:12:36;;;;;;;0.00;0.00;;;17.30;99.90;;;;;;5138835;27;20106;-70
2023/06/28 09:15:03;;;;;;;0.30;0.30;;;17.30;99.90;;;;;;5140500;27;20059;-70
2023/06/28 09:17:29;;;;;;;0.00;0.00;;;17.30;99.90;;;;;;5141681;27;20068;-70
2023/06/28 09:20:18;;;;;;;0.30;0.30;;;17.30;99.90;;;;;;5145822;27;20059;-71
2023/06/28 09:22:57;;;;;;;0.10;0.10;;;17.40;99.90;;;;;;5146445;27;20082;-69
2023/06/28 09:25:27;;;;;;;0.00;0.00;;;17.40;99.90;;;;;;5143627;27;20502;-70
2023/06/28 09:27:54;;;;;;;0.10;0.10;;;17.50;99.90;;;;;;5143529;27;20046;-70
2023/06/28 09:30:20;;;;;;;0.20;0.20;;;17.50;99.90;;;;;;5126872;27;20062;-70
2023/06/28 09:32:50;;;;;;;0.28;0.28;;;17.50;99.90;;;;;;5141142;27;20139;-70
2023/06/28 09:35:17;;;;;;;0.00;0.00;;;17.50;99.90;;;;;;5144024;27;20047;-70
2023/06/28 09:37:43;;;;;;;0.10;0.10;;;17.50;99.90;;;;;;5123576;27;20709;-70
2023/06/28 09:40:14;;;;;;;2.28;0.77;;;17.60;99.90;;;;;;5125172;27;20131;-70
2023/06/28 09:42:50;;;;;;;0.10;0.10;;;17.60;99.90;;;;;;5146808;27;20397;-70
2023/06/28 09:45:26;;;;;;;0.05;0.05;;;17.60;99.90;;;;;;5135299;27;20122;-70
2023/06/28 09:48:03;;;;;;;0.00;0.00;;;17.60;99.90;;;;;;5140903;27;20464;-70
2023/06/28 09:50:40;;;;;;;0.00;0.00;;;17.60;99.90;;;;;;5144617;27;20026;-70
2023/06/28 09:53:14;;;;;;;0.00;0.00;;;17.70;99.90;;;;;;5122197;27;20505;-70
2023/06/28 09:55:47;;;;;;;0.80;0.30;;;17.80;99.90;;;;;;5151469;27;20176;-70
2023/06/28 09:58:13;;;;;;;;;;;17.70;99.90;;;;;;5151110;27;20043;-69
2023/06/28 10:00:41;;;;;;;0.00;0.00;;;17.80;99.90;;;;;;5141365;27;19923;-69
2023/06/28 10:03:08;;;;;;;0.08;0.05;;;17.80;99.90;;;;;;5147555;27;20053;-70
2023/06/28 10:05:36;;;;;;;0.00;0.00;;;17.80;99.90;;;;;;5145336;27;20035;-70
2023/06/28 10:08:16;;;;;;;0.22;0.22;;;17.90;99.90;;;;;;5142318;27;20054;-69
2023/06/28 10:10:44;;;;;;;0.10;0.10;;;17.90;99.90;;;;;;5142249;27;20050;-70
2023/06/28 10:13:20;;;;;;;0.10;0.10;;;17.90;99.90;;;;;;5121257;27;20072;-69
2023/06/28 10:16:07;;;;;;;0.20;0.20;;;18.00;99.90;;;;;;5126605;27;20046;-70
2023/06/28 10:18:33;;;;;;;0.10;0.10;;;18.00;99.90;;;;;;5139813;27;20043;-70
2023/06/28 10:21:06;;;;;;;0.17;0.17;;;18.00;99.90;;;;;;5149430;27;20066;-70
2023/06/28 10:23:35;;;;;;;0.43;0.43;;;17.90;99.90;;;;;;5146345;27;20038;-70
2023/06/28 10:26:04;;;;;;;0.32;0.32;;;18.00;99.90;;;;;;5121104;27;20039;-70
2023/06/28 10:28:34;;;;;;;0.00;0.00;;;18.00;99.90;;;;;;5143081;27;20046;-70
2023/06/28 10:31:01;;;;;;;0.10;0.10;;;18.10;99.90;;;;;;5121162;27;20035;-70
2023/06/28 10:33:31;;;;;;;0.00;0.00;;;18.10;99.90;;;;;;5139921;27;20051;-71
2023/06/28 10:36:00;;;;;;;0.10;0.10;;;18.10;99.90;;;;;;5146806;27;20049;-70
2023/06/28 10:38:33;;;;;;;0.10;0.10;;;18.10;99.90;;;;;;5141739;27;20508;-70
2023/06/28 10:41:03;;;;;;;1.00;0.47;;;18.20;99.90;;;;;;5149943;27;20123;-71
2023/06/28 10:43:29;;;;;;;0.35;0.35;;;18.10;99.90;;;;;;5141750;27;20050;-70
2023/06/28 10:45:55;;;;;;;0.00;0.00;;;18.10;99.90;;;;;;5142623;27;20046;-70
2023/06/28 10:48:23;;;;;;;0.30;0.30;;;18.10;99.90;;;;;;5141107;27;20043;-70
2023/06/28 10:50:50;;;;;;;0.00;0.00;;;18.20;99.90;;;;;;5142044;27;20194;-71
2023/06/28 10:53:25;;;;;;;0.00;0.00;;;18.10;99.90;;;;;;5123582;27;20471;-71
2023/06/28 10:56:06;;;;;;;0.32;0.32;;;18.10;99.90;;;;;;5135509;27;20035;-70
2023/06/28 10:59:03;;;;;;;0.20;0.20;;;18.10;99.90;;;;;;5149422;27;20130;-71
2023/06/28 11:01:48;;;;;;;0.00;0.00;;;18.10;99.90;;;;;;5146382;27;20081;-71
2023/06/28 11:04:21;;;;;;;0.00;0.00;;;18.10;99.90;;;;;;5124396;27;20046;-70
2023/06/28 11:06:47;;;;;;;0.00;0.00;;;18.10;99.90;;;;;;5132902;27;20141;-70
2023/06/28 11:09:17;;;;;;;0.00;0.00;;;18.10;99.90;;;;;;5147964;27;20083;-70
2023/06/28 11:11:57;;;;;;;0.20;0.20;;;18.20;99.90;;;;;;5140990;27;20071;-70
2023/06/28 11:14:27;;;;;;;0.28;0.28;;;18.10;99.90;;;;;;5146084;27;20043;-70
2023/06/28 11:17:02;;;;;;;0.08;0.08;;;18.20;99.90;;;;;;5140797;27;20038;-70
2023/06/28 11:19:29;;;;;;;0.00;0.00;;;18.10;99.90;;;;;;5140676;27;20501;-70
2023/06/28 11:21:57;;;;;;;0.50;0.50;;;18.20;99.90;;;;;;5143279;27;20474;-70
2023/06/28 11:24:42;;;;;;;0.00;0.00;;;18.20;99.90;;;;;;5137803;27;20066;-70
2023/06/28 11:27:17;;;;;;;0.22;0.22;;;18.20;99.90;;;;;;5144404;27;20046;-70
2023/06/28 11:30:12;;;;;;;1.20;0.20;;;18.20;99.90;;;;;;5138757;27;20056;-70
2023/06/28 11:32:38;;;;;;;0.45;0.45;;;18.20;99.90;;;;;;5123864;27;20042;-70
2023/06/28 11:35:04;;;;;;;0.00;0.00;;;18.10;99.90;;;;;;5142246;27;20038;-70
2023/06/28 11:37:30;;;;;;;0.57;0.08;;;18.20;99.90;;;;;;5143106;27;20126;-70
2023/06/28 11:39:58;;;;;;;0.10;0.10;;;18.20;99.90;;;;;;5136642;27;20036;-70
2023/06/28 11:42:23;;;;;;;0.00;0.00;;;18.20;99.90;;;;;;5143751;27;20047;-70
2023/06/28 11:44:50;;;;;;;0.15;0.15;;;18.20;99.90;;;;;;5141085;27;20042;-70
2023/06/28 11:47:18;;;;;;;1.75;0.35;;;18.20;99.90;;;;;;5149143;27;20039;-70
2023/06/28 11:49:45;;;;;;;0.20;0.20;;;18.30;99.90;;;;;;5153133;27;20153;-70
2023/06/28 11:52:11;;;;;;;0.20;0.20;;;18.30;99.90;;;;;;5145981;27;20122;-70
2023/06/28 11:54:37;;;;;;;0.08;0.08;;;18.30;99.90;;;;;;5146505;27;20121;-70
2023/06/28 11:57:03;;;;;;;0.50;0.40;;;18.20;99.90;;;;;;5146080;27;20047;-70
2023/06/28 11:59:29;;;;;;;0.00;0.00;;;18.30;99.90;;;;;;5154630;27;20149;-70
2023/06/28 12:02:06;;;;;;;0.90;0.60;;;18.30;99.90;;;;;;5146102;27;20046;-70
2023/06/28 12:04:33;;;;;;;0.30;0.30;;;18.30;99.90;;;;;;5130498;27;20043;-70
2023/06/28 12:07:04;;;;;;;0.75;0.75;;;18.30;99.90;;;;;;5154808;27;20115;-70
2023/06/28 12:09:31;;;;;;;0.73;0.32;;;18.40;99.90;;;;;;5147843;27;20047;-70
2023/06/28 12:12:05;;;;;;;0.10;0.10;;;18.40;99.90;;;;;;5146300;27;20039;-70
2023/06/28 12:14:42;;;;;;;0.35;0.35;;;18.40;99.90;;;;;;5147237;27;20164;-70
2023/06/28 12:17:08;;;;;;;0.00;0.00;;;18.30;99.90;;;;;;5148224;27;20115;-70
2023/06/28 12:19:35;;;;;;;0.17;0.17;;;18.40;99.90;;;;;;5146784;27;20066;-70
2023/06/28 12:22:06;;;;;;;0.00;0.00;;;18.40;99.90;;;;;;5152528;27;20526;-70
2023/06/28 12:24:34;;;;;;;0.35;0.35;;;18.40;99.90;;;;;;5146765;27;20509;-69
2023/06/28 12:27:02;;;;;;;0.45;0.20;;;18.40;99.90;;;;;;5148770;27;20420;-70
2023/06/28 12:29:30;;;;;;;0.65;0.65;;;18.40;99.90;;;;;;5150084;27;20084;-70
2023/06/28 12:32:11;;;;;;;0.20;0.20;;;18.50;99.90;;;;;;5149974;27;20050;-69
2023/06/28 12:34:38;;;;;;;31.58;1.55;;;18.50;99.90;;;;;;5149095;27;20055;-70
2023/06/28 12:37:08;;;;;;;0.55;0.50;;;18.60;99.90;;;;;;5144326;27;20031;-70
2023/06/28 12:39:36;;;;;;;0.57;0.45;;;18.70;99.90;;;;;;5151746;27;20042;-70
2023/06/28 12:42:02;;;;;;;0.82;0.80;;;18.60;99.90;;;;;;5147040;27;20047;-70
2023/06/28 12:44:28;;;;;;;0.00;0.00;;;18.60;99.90;;;;;;5142461;27;20046;-70
2023/06/28 12:46:55;;;;;;;11.23;1.55;;;18.70;99.90;;;;;;5152252;27;20042;-70
2023/06/28 12:49:21;;;;;;;0.00;0.00;;;18.60;99.90;;;;;;5152697;27;20123;-70